Time;durP1;ratioP1;P1;durP2;ratioP2;P2;SDS_P1;SDS_P2;PMS_P1;PMS_P2;Temp;Humidity;BMP_temperature;BMP_pressure;BME280_temperature;BME280_humidity;BME280_pressure;Samples;Min_cycle;Max_cycle;Signal;HPM_P1;HPM_P2
2024/02/18 00:00:04;;;;;;;8.00;3.42;;;10.90;99.90;;;;;;5136070;27;20667;-79
2024/02/18 00:02:34;;;;;;;5.38;3.88;;;10.90;99.90;;;;;;5135580;27;20230;-82
2024/02/18 00:05:01;;;;;;;18.30;11.73;;;10.90;99.90;;;;;;5136201;27;20214;-83
2024/02/18 00:07:29;;;;;;;21.00;11.00;;;10.90;99.90;;;;;;5135545;27;20218;-82
2024/02/18 00:09:56;;;;;;;10.00;7.20;;;10.80;99.90;;;;;;5136122;27;20362;-79
2024/02/18 00:12:24;;;;;;;7.97;4.80;;;10.80;99.90;;;;;;5135947;27;20290;-79
2024/02/18 00:14:51;;;;;;;5.28;3.35;;;10.80;99.90;;;;;;5135371;27;20232;-79
2024/02/18 00:17:19;;;;;;;6.85;3.58;;;10.80;99.90;;;;;;5135553;27;20225;-79
2024/02/18 00:19:47;;;;;;;7.10;4.25;;;10.70;99.90;;;;;;5135454;27;20226;-80
2024/02/18 00:22:14;;;;;;;8.55;4.70;;;10.80;99.90;;;;;;5135665;27;20225;-81
2024/02/18 00:24:41;;;;;;;7.85;4.55;;;10.70;99.90;;;;;;5135377;27;20232;-81
2024/02/18 00:27:10;;;;;;;6.63;3.42;;;10.70;99.90;;;;;;5135807;27;20566;-77
2024/02/18 00:29:38;;;;;;;9.23;3.67;;;10.80;99.90;;;;;;5134990;27;20245;-77
2024/02/18 00:32:06;;;;;;;8.13;3.17;;;10.80;99.90;;;;;;5135389;27;20237;-77
2024/02/18 00:34:35;;;;;;;7.97;4.30;;;10.80;99.90;;;;;;5135398;27;20788;-76
2024/02/18 00:37:04;;;;;;;7.78;5.15;;;10.80;99.90;;;;;;5114307;27;20315;-77
2024/02/18 00:39:31;;;;;;;11.18;7.65;;;10.70;99.90;;;;;;5135046;27;20351;-82
2024/02/18 00:41:58;;;;;;;12.65;7.18;;;10.70;99.90;;;;;;5135306;27;20306;-80
2024/02/18 00:44:26;;;;;;;16.02;9.65;;;10.70;99.90;;;;;;5135596;27;20226;-77
2024/02/18 00:46:53;;;;;;;18.92;10.38;;;10.70;99.90;;;;;;5135111;27;20549;-77
2024/02/18 00:49:21;;;;;;;10.88;5.57;;;10.70;99.90;;;;;;5135774;27;20319;-77
2024/02/18 00:51:51;;;;;;;13.55;8.35;;;10.60;99.90;;;;;;5134478;27;20217;-80
2024/02/18 00:54:19;;;;;;;13.20;7.70;;;10.70;99.90;;;;;;5135201;27;20218;-77
2024/02/18 00:56:47;;;;;;;9.07;6.28;;;10.60;99.90;;;;;;5130320;27;20236;-80
2024/02/18 00:59:14;;;;;;;8.70;5.63;;;10.60;99.90;;;;;;5134901;27;20218;-82
2024/02/18 01:01:41;;;;;;;16.20;9.68;;;10.60;99.90;;;;;;5134098;27;20218;-80
2024/02/18 01:04:09;;;;;;;11.25;7.03;;;10.60;99.90;;;;;;5135368;27;20246;-78
2024/02/18 01:06:36;;;;;;;7.90;5.32;;;10.60;99.90;;;;;;5134784;27;20756;-82
2024/02/18 01:09:04;;;;;;;10.82;4.88;;;10.60;99.90;;;;;;5124207;27;20249;-82
2024/02/18 01:11:33;;;;;;;6.15;3.45;;;10.60;99.90;;;;;;5131766;27;20210;-82
2024/02/18 01:14:01;;;;;;;6.82;3.40;;;10.60;99.90;;;;;;5134119;27;20226;-82
2024/02/18 01:16:31;;;;;;;4.40;3.05;;;10.60;99.90;;;;;;5134973;27;20233;-79
2024/02/18 01:18:58;;;;;;;7.85;3.63;;;10.60;99.90;;;;;;5130640;27;20210;-80
2024/02/18 01:21:25;;;;;;;5.20;4.35;;;10.60;99.90;;;;;;5134719;27;20221;-80
2024/02/18 01:23:53;;;;;;;7.15;3.40;;;10.60;99.90;;;;;;5127320;27;20221;-79
2024/02/18 01:26:20;;;;;;;9.38;4.18;;;10.60;99.90;;;;;;5133245;27;20243;-77
2024/02/18 01:28:51;;;;;;;4.47;3.15;;;10.60;99.90;;;;;;5132535;27;20312;-77
2024/02/18 01:31:18;;;;;;;5.00;3.50;;;10.50;99.90;;;;;;5134572;27;20251;-80
2024/02/18 01:33:48;;;;;;;5.32;3.53;;;10.60;99.90;;;;;;5124229;27;20261;-82
2024/02/18 01:36:15;;;;;;;7.00;4.00;;;10.50;99.90;;;;;;5134017;27;20221;-79
2024/02/18 01:38:42;;;;;;;4.72;3.10;;;10.50;99.90;;;;;;5133211;27;20218;-82
2024/02/18 01:41:12;;;;;;;5.38;3.97;;;10.40;99.90;;;;;;5134047;27;20232;-82
2024/02/18 01:43:39;;;;;;;8.52;3.85;;;10.40;99.90;;;;;;5134155;27;20229;-81
2024/02/18 01:46:13;;;;;;;3.85;3.00;;;10.40;99.90;;;;;;5133799;27;20299;-80
2024/02/18 01:48:41;;;;;;;4.63;2.80;;;10.40;99.90;;;;;;5134369;27;20218;-82
2024/02/18 01:51:13;;;;;;;5.22;2.83;;;10.50;99.90;;;;;;5133657;27;20228;-81
2024/02/18 01:53:43;;;;;;;5.88;3.60;;;10.50;99.90;;;;;;5133880;27;20271;-80
2024/02/18 01:56:16;;;;;;;5.80;3.53;;;10.50;99.90;;;;;;5121049;27;20221;-78
2024/02/18 01:58:46;;;;;;;9.63;3.80;;;10.50;99.90;;;;;;5134421;27;20245;-79
2024/02/18 02:01:14;;;;;;;5.43;3.15;;;10.50;99.90;;;;;;5133675;27;20653;-77
2024/02/18 02:03:41;;;;;;;4.65;3.20;;;10.50;99.90;;;;;;5134273;28;20301;-78
2024/02/18 02:06:11;;;;;;;12.10;4.68;;;10.60;99.90;;;;;;5134079;28;20214;-77
2024/02/18 02:08:38;;;;;;;7.43;3.78;;;10.60;99.90;;;;;;5133261;28;20305;-80
2024/02/18 02:11:06;;;;;;;8.07;4.28;;;10.70;99.90;;;;;;5122773;28;20703;-79
2024/02/18 02:13:33;;;;;;;4.85;3.67;;;10.70;99.90;;;;;;5133698;28;20224;-77
2024/02/18 02:16:03;;;;;;;6.97;3.08;;;10.70;99.90;;;;;;5134420;28;20218;-80
2024/02/18 02:18:34;;;;;;;6.78;3.22;;;10.80;99.90;;;;;;5133874;28;20249;-80
2024/02/18 02:21:05;;;;;;;3.78;2.70;;;10.80;99.90;;;;;;5133527;28;20221;-82
2024/02/18 02:23:33;;;;;;;6.03;2.80;;;10.90;99.90;;;;;;5133869;28;20217;-80
2024/02/18 02:26:02;;;;;;;5.88;3.45;;;10.80;99.90;;;;;;5134080;28;20300;-77
2024/02/18 02:28:33;;;;;;;7.35;3.13;;;10.80;99.90;;;;;;5132813;28;20601;-77
2024/02/18 02:31:02;;;;;;;6.05;2.90;;;10.90;99.90;;;;;;5134186;28;20233;-81
2024/02/18 02:33:30;;;;;;;6.22;3.58;;;10.90;99.90;;;;;;5133052;28;20242;-80
2024/02/18 02:35:57;;;;;;;7.57;2.50;;;10.90;99.90;;;;;;5134243;28;20222;-82
2024/02/18 02:38:24;;;;;;;4.32;2.35;;;10.90;99.90;;;;;;5132854;28;20237;-77
2024/02/18 02:40:51;;;;;;;7.15;2.80;;;10.90;99.90;;;;;;5133407;28;20211;-78
2024/02/18 02:43:18;;;;;;;5.07;2.83;;;11.00;99.90;;;;;;5132711;28;20223;-77
2024/02/18 02:45:46;;;;;;;9.95;3.33;;;11.00;99.90;;;;;;5133809;28;20225;-81
2024/02/18 02:48:14;;;;;;;3.33;2.10;;;11.00;99.90;;;;;;5133183;28;20534;-80
2024/02/18 02:50:42;;;;;;;5.10;2.47;;;11.00;99.90;;;;;;5134747;27;20221;-81
2024/02/18 02:53:09;;;;;;;4.28;2.30;;;10.90;99.90;;;;;;5137762;27;20214;-78
2024/02/18 02:55:36;;;;;;;5.03;2.08;;;10.90;99.90;;;;;;5125132;27;20297;-78
2024/02/18 02:58:04;;;;;;;8.25;2.60;;;11.00;99.90;;;;;;5137454;27;20300;-79
2024/02/18 03:00:32;;;;;;;5.25;2.70;;;11.00;99.90;;;;;;5126495;27;20603;-79
2024/02/18 03:02:59;;;;;;;2.75;2.15;;;11.00;99.90;;;;;;5135959;27;20226;-78
2024/02/18 03:05:31;;;;;;;6.15;2.00;;;11.00;99.90;;;;;;5136690;27;20257;-80
2024/02/18 03:07:58;;;;;;;6.53;2.20;;;11.00;99.90;;;;;;5136964;27;20217;-77
2024/02/18 03:10:25;;;;;;;10.80;2.42;;;11.10;99.90;;;;;;5136824;27;20426;-80
2024/02/18 03:12:52;;;;;;;8.50;2.90;;;11.10;99.90;;;;;;5137409;27;20691;-80
2024/02/18 03:15:20;;;;;;;6.28;2.10;;;11.10;99.90;;;;;;5136992;27;20226;-80
2024/02/18 03:17:47;;;;;;;5.95;2.53;;;11.10;99.90;;;;;;5136542;27;20225;-79
2024/02/18 03:20:14;;;;;;;5.82;3.70;;;11.00;99.90;;;;;;5137453;27;20677;-82
2024/02/18 03:23:40;;;;;;;5.53;2.50;;;11.10;99.90;;;;;;5133896;27;20683;-79
2024/02/18 03:26:08;;;;;;;6.90;2.47;;;11.00;99.90;;;;;;5135990;27;20214;-79
2024/02/18 03:28:35;;;;;;;7.65;2.30;;;11.00;99.90;;;;;;5137008;27;20305;-78
2024/02/18 03:31:02;;;;;;;6.70;2.92;;;10.90;99.90;;;;;;5136149;27;20315;-79
2024/02/18 03:33:29;;;;;;;7.95;3.40;;;10.90;99.90;;;;;;5136087;27;20214;-79
2024/02/18 03:35:56;;;;;;;7.80;2.85;;;10.90;99.90;;;;;;5136878;27;20218;-79
2024/02/18 03:38:23;;;;;;;5.22;2.58;;;10.80;99.90;;;;;;5135897;27;20245;-79
2024/02/18 03:40:53;;;;;;;6.15;3.10;;;10.80;99.90;;;;;;5136369;27;20218;-79
2024/02/18 03:43:21;;;;;;;4.80;2.58;;;10.70;99.90;;;;;;5136394;27;20627;-79
2024/02/18 03:45:48;;;;;;;4.60;2.10;;;10.80;99.90;;;;;;5136642;27;20686;-79
2024/02/18 03:48:15;;;;;;;6.80;3.08;;;10.70;99.90;;;;;;5126587;27;20294;-79
2024/02/18 03:50:42;;;;;;;6.97;2.95;;;10.70;99.90;;;;;;5136698;27;20226;-79
2024/02/18 03:53:47;;;;;;;5.75;3.38;;;10.70;99.90;;;;;;5136312;27;20534;-79
2024/02/18 03:56:26;;;;;;;5.40;3.40;;;10.70;99.90;;;;;;5136283;27;20310;-79
2024/02/18 03:58:57;;;;;;;9.15;4.05;;;10.60;99.90;;;;;;5135762;27;20304;-80
2024/02/18 04:01:24;;;;;;;6.55;3.03;;;10.60;99.90;;;;;;5136006;27;20705;-79
2024/02/18 04:03:51;;;;;;;6.85;3.22;;;10.60;99.90;;;;;;5136071;27;20237;-79
2024/02/18 04:06:18;;;;;;;8.77;3.80;;;10.50;99.90;;;;;;5135981;27;20297;-79
2024/02/18 04:08:46;;;;;;;7.25;3.30;;;10.40;99.90;;;;;;5136545;27;20561;-82
2024/02/18 04:11:13;;;;;;;5.90;3.45;;;10.40;99.90;;;;;;5136453;27;20225;-79
2024/02/18 04:13:44;;;;;;;6.10;3.85;;;10.40;99.90;;;;;;5135371;27;20322;-82
2024/02/18 04:16:14;;;;;;;6.72;3.55;;;10.40;99.90;;;;;;5135376;27;20236;-82
2024/02/18 04:18:44;;;;;;;8.82;3.25;;;10.40;99.90;;;;;;5136094;27;20687;-79
2024/02/18 04:21:11;;;;;;;12.93;3.22;;;10.40;99.90;;;;;;5135276;27;20218;-78
2024/02/18 04:23:38;;;;;;;8.35;3.97;;;10.40;99.90;;;;;;5135499;27;20229;-78
2024/02/18 04:26:07;;;;;;;6.68;3.65;;;10.40;99.90;;;;;;5135273;27;20236;-80
2024/02/18 04:28:35;;;;;;;6.45;2.90;;;10.30;99.90;;;;;;5135836;27;20237;-80
2024/02/18 04:31:02;;;;;;;5.70;3.35;;;10.30;99.90;;;;;;5134803;27;20218;-80
2024/02/18 04:33:33;;;;;;;5.72;2.90;;;10.30;99.90;;;;;;5135462;27;20226;-80
2024/02/18 04:36:01;;;;;;;6.13;3.15;;;10.30;99.90;;;;;;5134875;27;20218;-79
2024/02/18 04:38:28;;;;;;;9.52;2.75;;;10.30;99.90;;;;;;5135608;27;20237;-78
2024/02/18 04:40:55;;;;;;;6.25;3.00;;;10.20;99.90;;;;;;5135375;27;20218;-78
2024/02/18 04:43:22;;;;;;;7.47;2.28;;;10.20;99.90;;;;;;5135365;27;20222;-80
2024/02/18 04:45:52;;;;;;;7.85;3.00;;;10.20;99.90;;;;;;5134510;27;20225;-78
2024/02/18 04:48:19;;;;;;;5.05;2.90;;;10.20;99.90;;;;;;5135216;27;20305;-78
2024/02/18 04:50:47;;;;;;;5.70;2.65;;;10.20;99.90;;;;;;5135617;27;20229;-78
2024/02/18 04:53:15;;;;;;;6.10;3.13;;;10.20;99.90;;;;;;5134712;27;20565;-78
2024/02/18 04:55:42;;;;;;;6.35;3.55;;;10.10;99.90;;;;;;5135495;27;20218;-80
2024/02/18 04:58:10;;;;;;;6.97;2.97;;;10.20;99.90;;;;;;5135105;27;20667;-80
2024/02/18 05:00:37;;;;;;;8.48;2.80;;;10.10;99.90;;;;;;5135370;27;20226;-80
2024/02/18 05:03:06;;;;;;;5.43;2.78;;;10.10;99.90;;;;;;5133716;27;20230;-79
2024/02/18 05:05:33;;;;;;;11.07;3.28;;;10.10;99.90;;;;;;5135119;27;20230;-81
2024/02/18 05:08:02;;;;;;;7.18;2.95;;;10.10;99.90;;;;;;5134976;27;20581;-80
2024/02/18 05:10:42;;;;;;;;;;;;;;;;;;;;;
2024/02/18 05:13:10;;;;;;;4.78;2.30;;;10.20;99.90;;;;;;5133403;27;20222;-78
2024/02/18 05:15:37;;;;;;;5.72;2.63;;;10.20;99.90;;;;;;5135072;27;20218;-78
2024/02/18 05:18:04;;;;;;;9.02;2.65;;;10.10;99.90;;;;;;5134889;27;20614;-81
2024/02/18 05:20:31;;;;;;;8.02;2.72;;;10.20;99.90;;;;;;5134480;27;20253;-80
2024/02/18 05:22:59;;;;;;;8.02;2.50;;;10.10;99.90;;;;;;5134652;27;20283;-80
2024/02/18 05:25:27;;;;;;;6.13;3.45;;;10.20;99.90;;;;;;5134144;27;20245;-78
2024/02/18 05:27:54;;;;;;;6.30;3.25;;;10.20;99.90;;;;;;5134630;27;20274;-80
2024/02/18 05:30:25;;;;;;;3.08;2.20;;;10.10;99.90;;;;;;5134028;27;20233;-80
2024/02/18 05:32:52;;;;;;;7.13;3.15;;;10.10;99.90;;;;;;5134843;27;20224;-80
2024/02/18 05:35:19;;;;;;;9.57;2.50;;;10.10;99.90;;;;;;5124285;27;20222;-80
2024/02/18 05:37:47;;;;;;;6.38;2.65;;;10.10;99.90;;;;;;5134601;27;20218;-81
2024/02/18 05:40:15;;;;;;;3.05;2.38;;;10.10;99.90;;;;;;5133867;27;20607;-78
2024/02/18 05:42:43;;;;;;;6.25;2.90;;;10.10;99.90;;;;;;5125551;27;20218;-78
2024/02/18 05:45:11;;;;;;;8.40;2.70;;;10.10;99.90;;;;;;5123812;27;20218;-80
2024/02/18 05:47:39;;;;;;;5.43;2.45;;;10.10;99.90;;;;;;5133250;27;20297;-80
2024/02/18 05:50:08;;;;;;;8.02;3.33;;;10.10;99.90;;;;;;5134131;27;20308;-80
2024/02/18 05:52:35;;;;;;;6.47;2.90;;;10.10;99.90;;;;;;5133624;27;20232;-78
2024/02/18 05:55:02;;;;;;;5.30;2.75;;;10.10;99.90;;;;;;5134309;27;20228;-78
2024/02/18 05:57:30;;;;;;;9.45;2.63;;;10.10;99.90;;;;;;5133478;27;20249;-81
2024/02/18 05:59:59;;;;;;;8.80;2.53;;;10.00;99.90;;;;;;5134466;27;20222;-77
2024/02/18 06:02:26;;;;;;;8.00;2.60;;;10.00;99.90;;;;;;5133544;27;20245;-80
2024/02/18 06:04:53;;;;;;;6.10;3.85;;;10.00;99.90;;;;;;5134241;28;20214;-81
2024/02/18 06:07:23;;;;;;;8.38;2.90;;;10.00;99.90;;;;;;5133408;28;20574;-78
2024/02/18 06:09:55;;;;;;;5.13;3.20;;;10.00;99.90;;;;;;5134524;28;20663;-80
2024/02/18 06:12:22;;;;;;;3.85;2.10;;;10.00;99.90;;;;;;5134193;28;20303;-80
2024/02/18 06:14:49;;;;;;;3.80;2.88;;;10.00;99.90;;;;;;5133677;28;20651;-78
2024/02/18 06:17:18;;;;;;;10.07;2.40;;;9.90;99.90;;;;;;5134149;28;20233;-77
2024/02/18 06:19:51;;;;;;;9.95;2.58;;;9.90;99.90;;;;;;5130615;28;20664;-78
2024/02/18 06:22:18;;;;;;;5.72;2.70;;;9.90;99.90;;;;;;5134008;28;20217;-78
2024/02/18 06:24:46;;;;;;;11.02;3.65;;;9.90;99.90;;;;;;5135376;27;20576;-80
2024/02/18 06:27:16;;;;;;;7.25;3.05;;;9.90;99.90;;;;;;5138561;27;20214;-78
2024/02/18 06:29:43;;;;;;;6.32;3.00;;;9.80;99.90;;;;;;5137166;27;20282;-80
2024/02/18 06:32:12;;;;;;;7.50;2.90;;;9.80;99.90;;;;;;5138419;27;20251;-77
2024/02/18 06:34:45;;;;;;;6.10;2.60;;;9.80;99.90;;;;;;5126812;27;20225;-78
2024/02/18 06:37:28;;;;;;;9.20;4.43;;;9.70;99.90;;;;;;5137961;27;20304;-78
2024/02/18 06:40:47;;;;;;;6.00;2.67;;;9.70;99.90;;;;;;5138409;27;20224;-80
2024/02/18 06:43:15;;;;;;;9.35;3.28;;;9.80;99.90;;;;;;5074313;28;20282;-81
2024/02/18 06:45:42;;;;;;;8.73;4.47;;;9.80;99.90;;;;;;5132840;27;20230;-78
2024/02/18 06:48:15;;;;;;;8.10;3.95;;;9.80;99.90;;;;;;5137430;27;20242;-81
2024/02/18 06:50:47;;;;;;;7.32;3.50;;;9.70;99.90;;;;;;5137450;27;20213;-81
2024/02/18 06:53:19;;;;;;;10.48;4.20;;;9.80;99.90;;;;;;5137693;27;20605;-78
2024/02/18 06:55:46;;;;;;;8.13;3.50;;;9.80;99.90;;;;;;5137195;27;20275;-80
2024/02/18 06:58:14;;;;;;;7.03;3.42;;;9.70;99.90;;;;;;5137600;27;20304;-80
2024/02/18 07:00:43;;;;;;;10.68;3.88;;;9.70;99.90;;;;;;5137196;27;20683;-81
2024/02/18 07:03:10;;;;;;;6.50;2.97;;;9.70;99.90;;;;;;5136940;27;20236;-78
2024/02/18 07:05:37;;;;;;;7.38;3.30;;;9.80;99.90;;;;;;5136841;27;20671;-80
2024/02/18 07:08:08;;;;;;;8.43;3.38;;;9.80;99.90;;;;;;5137166;27;20228;-81
2024/02/18 07:10:36;;;;;;;6.70;2.60;;;9.80;99.90;;;;;;5127166;27;20225;-78
2024/02/18 07:13:03;;;;;;;4.63;3.42;;;9.80;99.90;;;;;;5137101;27;20225;-81
2024/02/18 07:15:30;;;;;;;10.98;3.10;;;9.80;99.90;;;;;;5136546;27;20228;-80
2024/02/18 07:17:57;;;;;;;5.68;2.90;;;9.80;99.90;;;;;;5136868;27;20218;-81
2024/02/18 07:20:25;;;;;;;8.52;2.60;;;9.80;99.90;;;;;;5136192;27;20229;-81
2024/02/18 07:22:52;;;;;;;6.05;3.10;;;9.80;99.90;;;;;;5136157;27;20222;-81
2024/02/18 07:25:21;;;;;;;3.95;2.50;;;9.90;99.90;;;;;;5137080;27;20283;-78
2024/02/18 07:27:48;;;;;;;6.47;2.70;;;9.90;99.90;;;;;;5136433;27;20304;-79
2024/02/18 07:30:19;;;;;;;6.00;2.75;;;9.90;99.90;;;;;;5126433;27;20568;-81
2024/02/18 07:32:46;;;;;;;8.10;2.80;;;9.90;99.90;;;;;;5106311;27;20227;-78
2024/02/18 07:35:17;;;;;;;5.30;2.60;;;9.90;99.90;;;;;;5136095;27;20667;-81
2024/02/18 07:40:35;;;;;;;4.97;2.42;;;9.90;99.90;;;;;;5122783;27;20228;-80
2024/02/18 07:43:22;;;;;;;7.63;3.60;;;9.90;99.90;;;;;;5136445;27;20253;-78
2024/02/18 07:45:50;;;;;;;11.80;3.50;;;9.90;99.90;;;;;;5136748;27;20272;-80
2024/02/18 07:48:23;;;;;;;5.55;3.28;;;9.90;99.90;;;;;;5142574;27;20221;-81
2024/02/18 07:50:50;;;;;;;11.38;2.90;;;9.90;99.90;;;;;;5116488;27;20218;-81
2024/02/18 07:53:17;;;;;;;4.18;2.65;;;9.90;99.90;;;;;;5114975;28;20309;-81
2024/02/18 07:55:49;;;;;;;5.78;3.35;;;9.90;99.90;;;;;;5127296;27;20229;-81
2024/02/18 07:58:16;;;;;;;11.85;3.33;;;10.00;99.90;;;;;;5135638;27;20983;-80
2024/02/18 08:00:44;;;;;;;6.15;2.72;;;10.00;99.90;;;;;;5135815;27;20221;-81
2024/02/18 08:03:17;;;;;;;5.18;3.28;;;10.00;99.90;;;;;;5136969;27;20561;-81
2024/02/18 08:05:44;;;;;;;9.35;3.65;;;10.10;99.90;;;;;;5145822;27;20246;-78
2024/02/18 08:08:11;;;;;;;7.65;3.58;;;10.10;99.90;;;;;;5145253;27;20232;-78
2024/02/18 08:10:42;;;;;;;8.88;3.42;;;10.10;99.90;;;;;;5156142;27;20229;-78
2024/02/18 08:13:10;;;;;;;7.95;3.30;;;10.10;99.90;;;;;;5155914;27;20278;-78
2024/02/18 08:15:37;;;;;;;8.98;3.38;;;10.10;99.90;;;;;;5156245;27;20217;-78
2024/02/18 08:18:08;;;;;;;6.85;3.33;;;10.10;99.90;;;;;;5156354;27;20655;-78
2024/02/18 08:20:45;;;;;;;16.02;7.13;;;10.00;99.90;;;;;;5151037;27;20602;-78
2024/02/18 08:23:12;;;;;;;13.18;5.13;;;10.10;99.90;;;;;;5133311;27;20225;-78
2024/02/18 08:25:39;;;;;;;7.57;4.20;;;10.10;99.90;;;;;;5129361;27;20224;-78
2024/02/18 08:28:10;;;;;;;8.82;3.17;;;10.10;99.90;;;;;;5135629;27;20701;-78
2024/02/18 08:30:38;;;;;;;7.18;4.22;;;10.10;99.90;;;;;;5126715;27;20222;-78
2024/02/18 08:36:19;;;;;;;8.70;3.75;;;10.10;99.90;;;;;;5132526;27;20719;-78
2024/02/18 08:38:50;;;;;;;7.55;3.38;;;10.20;99.90;;;;;;5123893;27;20318;-79
2024/02/18 08:41:20;;;;;;;7.03;3.85;;;10.20;99.90;;;;;;5134893;27;20217;-81
2024/02/18 08:43:52;;;;;;;7.13;3.22;;;10.30;99.90;;;;;;5135440;27;20226;-82
2024/02/18 08:46:30;;;;;;;6.20;3.22;;;10.30;99.90;;;;;;5122068;27;20222;-81
2024/02/18 08:48:57;;;;;;;7.20;3.10;;;10.40;99.90;;;;;;5115787;27;20264;-81
2024/02/18 08:51:24;;;;;;;8.35;3.33;;;10.40;99.90;;;;;;5105899;28;20547;-78
2024/02/18 08:54:03;;;;;;;8.07;3.50;;;10.40;99.90;;;;;;5114261;28;20291;-81
2024/02/18 08:56:30;;;;;;;6.95;4.00;;;10.40;99.90;;;;;;5126976;27;20256;-81
2024/02/18 08:58:58;;;;;;;7.47;2.83;;;10.50;99.90;;;;;;5124853;27;20214;-81
2024/02/18 09:01:27;;;;;;;6.82;3.15;;;10.40;99.90;;;;;;5133474;27;20222;-81
2024/02/18 09:07:15;;;;;;;8.48;3.88;;;10.50;99.90;;;;;;5097277;27;20224;-79
2024/02/18 09:09:42;;;;;;;7.18;3.33;;;10.50;99.90;;;;;;5125297;27;20218;-81
2024/02/18 09:12:13;;;;;;;10.55;4.47;;;10.50;99.90;;;;;;5123811;27;20226;-82
2024/02/18 09:14:56;;;;;;;6.90;3.95;;;10.50;99.90;;;;;;5133838;27;20218;-81
2024/02/18 09:17:25;;;;;;;8.60;5.45;;;10.50;99.90;;;;;;5110079;27;20278;-80
2024/02/18 09:19:52;;;;;;;6.30;3.90;;;10.50;99.90;;;;;;5128716;27;20226;-80
2024/02/18 09:22:24;;;;;;;8.23;3.92;;;10.50;99.90;;;;;;5134046;27;20698;-81
2024/02/18 09:24:56;;;;;;;8.15;3.83;;;10.50;99.90;;;;;;5134094;27;20221;-80
2024/02/18 09:27:24;;;;;;;5.88;3.33;;;10.60;99.90;;;;;;5125849;27;20224;-78
2024/02/18 09:29:52;;;;;;;6.55;3.17;;;10.60;99.90;;;;;;5122515;27;20222;-78
2024/02/18 09:32:33;;;;;;;5.43;3.25;;;10.70;99.90;;;;;;5134053;27;20337;-78
2024/02/18 09:35:02;;;;;;;5.60;2.75;;;10.70;99.90;;;;;;5135289;27;20592;-81
2024/02/18 09:37:29;;;;;;;6.97;3.40;;;10.60;99.90;;;;;;5133822;27;20222;-78
2024/02/18 09:39:56;;;;;;;7.03;4.18;;;10.60;99.90;;;;;;5134428;27;20668;-78
2024/02/18 09:42:25;;;;;;;6.97;3.13;;;10.60;99.90;;;;;;5134259;27;20222;-77
2024/02/18 09:44:56;;;;;;;5.70;2.95;;;10.50;99.90;;;;;;5125207;27;20540;-78
2024/02/18 09:47:25;;;;;;;5.82;3.13;;;10.50;99.90;;;;;;5117914;27;20222;-78
2024/02/18 09:49:52;;;;;;;7.97;3.80;;;10.60;99.90;;;;;;5112312;28;20676;-81
2024/02/18 09:52:24;;;;;;;7.13;2.67;;;10.50;99.90;;;;;;5112507;28;20242;-80
2024/02/18 09:54:55;;;;;;;8.18;3.10;;;10.50;99.90;;;;;;5101886;28;20229;-81
2024/02/18 09:57:22;;;;;;;4.82;2.40;;;10.60;99.90;;;;;;5102786;28;20353;-80
2024/02/18 10:00:11;;;;;;;9.07;3.80;;;10.60;99.90;;;;;;5101476;28;20275;-80
2024/02/18 10:02:39;;;;;;;7.15;3.55;;;10.60;99.90;;;;;;5100819;28;20574;-81
2024/02/18 10:05:07;;;;;;;6.10;2.42;;;10.70;99.90;;;;;;5112658;28;20234;-80
2024/02/18 10:07:45;;;;;;;9.82;3.83;;;10.70;99.90;;;;;;5102497;28;20254;-81
2024/02/18 10:10:18;;;;;;;7.15;3.10;;;10.80;99.90;;;;;;5109326;28;20234;-81
2024/02/18 10:12:48;;;;;;;7.50;3.42;;;10.90;99.90;;;;;;5093900;28;20314;-81
2024/02/18 10:15:19;;;;;;;14.68;3.47;;;11.00;99.90;;;;;;5113209;28;20222;-81
2024/02/18 10:17:50;;;;;;;7.25;3.10;;;11.10;99.90;;;;;;5112107;28;20702;-79
2024/02/18 10:20:17;;;;;;;4.85;3.58;;;11.00;99.90;;;;;;5112314;28;20242;-79
2024/02/18 10:22:44;;;;;;;6.47;2.97;;;11.10;99.90;;;;;;5111616;28;20305;-80
2024/02/18 10:25:14;;;;;;;6.45;2.80;;;11.10;99.90;;;;;;5104996;28;20314;-78
2024/02/18 10:27:41;;;;;;;8.02;2.90;;;11.20;99.90;;;;;;5113055;28;20222;-79
2024/02/18 10:30:10;;;;;;;4.50;2.95;;;11.30;99.90;;;;;;5113412;28;20225;-78
2024/02/18 10:32:40;;;;;;;6.10;2.42;;;11.30;99.90;;;;;;5113890;28;20738;-80
2024/02/18 10:35:08;;;;;;;7.90;2.78;;;11.30;99.90;;;;;;5114212;28;20218;-81
2024/02/18 10:37:38;;;;;;;9.10;3.00;;;11.40;99.90;;;;;;5113928;28;20680;-80
2024/02/18 10:40:13;;;;;;;8.48;3.08;;;11.40;99.90;;;;;;5113097;28;20262;-80
2024/02/18 10:42:44;;;;;;;7.97;3.38;;;11.50;99.90;;;;;;5114010;28;20226;-78
2024/02/18 10:45:16;;;;;;;7.13;3.03;;;11.50;99.90;;;;;;5111730;28;20219;-80
2024/02/18 10:47:56;;;;;;;7.43;3.70;;;11.60;99.90;;;;;;5101447;28;20223;-77
2024/02/18 10:50:26;;;;;;;9.13;2.92;;;11.60;99.90;;;;;;5111700;28;20223;-81
2024/02/18 10:53:02;;;;;;;5.90;3.40;;;11.70;99.90;;;;;;5113457;28;20226;-78
2024/02/18 10:55:35;;;;;;;8.30;4.85;;;11.80;99.90;;;;;;5113051;28;20218;-81
2024/02/18 10:58:09;;;;;;;5.82;3.13;;;11.90;99.90;;;;;;5113519;28;20229;-79
2024/02/18 11:00:43;;;;;;;3.58;2.75;;;11.90;99.90;;;;;;5113060;28;20250;-79
2024/02/18 11:03:25;;;;;;;6.57;3.75;;;11.90;99.90;;;;;;5093978;28;20678;-79
2024/02/18 11:05:53;;;;;;;5.93;3.35;;;11.90;99.90;;;;;;5113839;28;20254;-79
2024/02/18 11:08:29;;;;;;;5.65;3.40;;;12.00;99.90;;;;;;5112780;28;20279;-78
2024/02/18 11:10:59;;;;;;;6.88;3.17;;;11.90;99.90;;;;;;5112873;28;20230;-78
2024/02/18 11:13:29;;;;;;;9.43;3.70;;;12.00;99.90;;;;;;5106599;28;20624;-78
2024/02/18 11:15:56;;;;;;;5.85;2.17;;;12.00;99.90;;;;;;5117056;28;20460;-78
2024/02/18 11:18:33;;;;;;;6.72;3.85;;;12.00;99.90;;;;;;5116438;28;20223;-78
2024/02/18 11:21:00;;;;;;;6.37;3.70;;;12.10;99.90;;;;;;5116180;28;20664;-79
2024/02/18 11:23:29;;;;;;;7.65;3.72;;;12.20;99.90;;;;;;5103875;28;20476;-81
2024/02/18 11:25:56;;;;;;;5.70;3.70;;;12.20;99.90;;;;;;5115202;28;20231;-80
2024/02/18 11:28:25;;;;;;;8.00;3.83;;;12.20;99.90;;;;;;5113402;28;20226;-80
2024/02/18 11:30:53;;;;;;;7.07;4.30;;;12.40;99.90;;;;;;5116095;28;20468;-81
2024/02/18 11:33:21;;;;;;;5.57;3.67;;;12.40;99.90;;;;;;5105431;28;20563;-80
2024/02/18 11:36:21;;;;;;;4.70;3.53;;;12.50;99.90;;;;;;5114925;28;20219;-81
2024/02/18 11:38:53;;;;;;;7.18;4.53;;;12.60;99.90;;;;;;5115078;28;20222;-81
2024/02/18 11:41:28;;;;;;;6.57;4.43;;;12.70;99.90;;;;;;5115794;28;20230;-78
2024/02/18 11:43:56;;;;;;;7.10;4.72;;;12.80;99.90;;;;;;5106268;28;20222;-80
2024/02/18 11:46:25;;;;;;;6.47;3.70;;;12.80;99.90;;;;;;5107800;28;20238;-78
2024/02/18 11:48:54;;;;;;;4.32;3.92;;;12.90;99.90;;;;;;5115948;28;20984;-78
2024/02/18 11:51:27;;;;;;;9.90;4.03;;;12.90;99.90;;;;;;5115827;28;20598;-78
2024/02/18 11:53:56;;;;;;;5.97;3.93;;;12.90;99.90;;;;;;5105107;28;20492;-80
2024/02/18 11:56:32;;;;;;;11.17;4.93;;;12.90;99.90;;;;;;5116103;28;20457;-78
2024/02/18 11:59:03;;;;;;;7.55;5.32;;;12.90;99.90;;;;;;5115449;28;20867;-78
2024/02/18 12:01:39;;;;;;;10.20;5.30;;;12.90;99.90;;;;;;5115562;28;20234;-78
2024/02/18 12:04:06;;;;;;;9.52;5.63;;;13.00;99.90;;;;;;5115963;28;20464;-79
2024/02/18 12:06:37;;;;;;;8.60;5.63;;;13.00;99.90;;;;;;5115407;28;20222;-80
2024/02/18 12:09:14;;;;;;;6.40;4.87;;;13.00;99.90;;;;;;5116508;28;20278;-81
2024/02/18 12:11:52;;;;;;;6.97;5.53;;;13.10;99.90;;;;;;5103398;28;20472;-82
2024/02/18 12:14:20;;;;;;;9.00;5.10;;;13.10;99.90;;;;;;5105194;28;20874;-79
2024/02/18 12:17:14;;;;;;;6.67;5.40;;;13.10;99.90;;;;;;5117014;28;20808;-78
2024/02/18 12:19:45;;;;;;;9.00;5.37;;;13.20;99.90;;;;;;5097377;28;20968;-79
2024/02/18 12:22:22;;;;;;;6.40;5.80;;;13.10;99.90;;;;;;5116088;28;20464;-80
2024/02/18 12:24:52;;;;;;;8.47;5.97;;;13.10;99.90;;;;;;5115904;28;20463;-81
2024/02/18 12:27:21;;;;;;;7.67;5.33;;;13.20;99.90;;;;;;5117344;28;20862;-79
2024/02/18 12:29:49;;;;;;;6.90;5.40;;;13.20;99.90;;;;;;5115239;28;20488;-79
2024/02/18 12:32:17;;;;;;;7.53;5.00;;;13.30;99.90;;;;;;5115281;28;20469;-79
2024/02/18 12:34:55;;;;;;;6.50;5.47;;;13.30;99.90;;;;;;5103350;28;20475;-82
2024/02/18 12:37:24;;;;;;;8.23;6.00;;;13.40;99.90;;;;;;5114127;28;20468;-82
2024/02/18 12:39:54;;;;;;;6.87;6.17;;;13.50;99.90;;;;;;5114279;28;20469;-81
2024/02/18 12:42:22;;;;;;;8.30;5.40;;;13.50;99.90;;;;;;5103925;28;20472;-82
2024/02/18 12:45:03;;;;;;;8.70;5.87;;;13.50;99.90;;;;;;5110238;28;20551;-81
2024/02/18 12:47:43;;;;;;;5.43;4.77;;;13.50;99.90;;;;;;5114907;28;20502;-82
2024/02/18 12:50:11;;;;;;;10.00;5.10;;;13.60;99.90;;;;;;5114460;28;20814;-81
2024/02/18 12:52:45;;;;;;;11.07;5.40;;;13.60;99.90;;;;;;5114353;28;20541;-80
2024/02/18 12:55:17;;;;;;;7.83;5.93;;;13.70;99.90;;;;;;5114159;28;20896;-78
2024/02/18 12:57:50;;;;;;;8.60;5.57;;;13.60;99.90;;;;;;5115027;28;20467;-78
2024/02/18 13:00:28;;;;;;;8.87;5.43;;;13.60;99.90;;;;;;5101993;28;20468;-79
2024/02/18 13:02:55;;;;;;;10.57;7.57;;;13.60;99.90;;;;;;5103224;28;20480;-81
2024/02/18 13:05:27;;;;;;;5.90;4.90;;;13.60;99.90;;;;;;5114168;28;20933;-81
2024/02/18 13:07:57;;;;;;;8.63;5.63;;;13.60;99.90;;;;;;5106504;28;20461;-81
2024/02/18 13:13:15;;;;;;;8.07;5.03;;;13.80;99.90;;;;;;5102572;28;20476;-82